Station: Mount Ginini  

  Atmospheric Gas Attenuation - ITU Rec 676-11   ----------------- dB/100km -----------------
Date Time Temp RH % AH g/m3 Dew Point Wind Direction Speed kph Gust kph Barometer mB Rainfall Since 9am 24GHz 47GHz 76GHz 122GHz 134GHz 241GHz
09/05 04:20 2.5 94 5.41 1.6 15 19 1013.1 0.6 13.2 23.8 31.9 83.3 67.8 229.7
09/05 04:10 2.5 98 5.64 2.2 11 15 1013.1 0.6 13.7 24.2 32.9 85.9 70.9 240.7
09/05 04:00 2.2 99 5.58 2.1 13 22 1013.1 0.6 13.6 24.2 32.8 85.5 70.4 238.7
09/05 03:50 2 99 5.51 1.9 13 17 1013.1 0.6 13.4 24.1 32.5 85.0 69.6 236.0
09/05 03:40 1.9 99 5.47 1.8 15 19 1013.1 0.6 13.4 24.1 32.4 84.6 69.1 234.3
09/05 03:30 2 99 5.51 1.9 17 24 1013.1 0.6 13.4 24.1 32.5 85.0 69.6 236.0
09/05 03:20 2 99 5.51 1.9 13 17 1013.1 0.6 13.4 24.1 32.5 85.0 69.6 236.0
09/05 03:10 1.7 99 5.4 1.6 13 17 1013.1 0.6 13.2 24.0 32.2 84.1 68.4 231.6
09/05 03:00 1.9 99 5.47 1.8 17 26 1013.1 0.6 13.4 24.1 32.4 84.6 69.1 234.3
09/05 02:50 1.7 99 5.4 1.6 19 26 1013.1 0.6 13.2 24.0 32.2 84.1 68.4 231.6
09/05 02:40 1.5 99 5.32 1.4 13 17 1013.1 0.6 13.0 23.9 32.0 83.4 67.4 228.3
09/05 02:30 1.7 99 5.4 1.6 17 22 1013.1 0.6 13.2 24.0 32.2 84.1 68.4 231.6
09/05 02:20 1.8 99 5.43 1.7 19 20 1013.1 0.6 13.3 24.0 32.3 84.3 68.7 232.7
09/05 02:10 2 99 5.51 1.9 17 22 1013.1 0.6 13.4 24.1 32.5 85.0 69.6 236.0
09/05 02:00 2.1 99 5.54 2 15 26 1013.1 0.6 13.5 24.1 32.6 85.2 69.9 237.1
09/05 01:50 2.2 99 5.58 2.1 17 22 1013.1 0.6 13.6 24.2 32.8 85.5 70.4 238.7
09/05 01:40 2.2 99 5.58 2.1 17 22 1013.1 0.6 13.6 24.2 32.8 85.5 70.4 238.7
09/05 01:30 2.3 99 5.62 2.2 15 24 1013.1 0.6 13.7 24.2 32.9 85.9 70.8 240.3
09/05 01:20 2.3 99 5.62 2.2 19 30 1013.1 0.6 13.7 24.2 32.9 85.9 70.8 240.3
09/05 01:10 2.4 99 5.66 2.3 19 24 1013.1 0.6 13.7 24.3 33.0 86.2 71.3 242.0
09/05 01:00 2.5 99 5.7 2.4 13 26 1013.1 0.6 13.8 24.3 33.1 86.5 71.8 243.6
09/05 00:50 2.4 99 5.66 2.3 19 30 1013.1 0.6 13.7 24.3 33.0 86.2 71.3 242.0
09/05 00:40 2.4 99 5.66 2.3 17 24 1013.1 0.6 13.7 24.3 33.0 86.2 71.3 242.0
09/05 00:30 2.3 99 5.62 2.2 20 32 1013.1 0.6 13.7 24.2 32.9 85.9 70.8 240.3
09/05 00:20 2.5 99 5.7 2.4 20 30 1013.1 0.6 13.8 24.3 33.1 86.5 71.8 243.6
09/05 00:10 2.5 99 5.7 2.4 11 15 1013.1 0.6 13.8 24.3 33.1 86.5 71.8 243.6
09/05 00:00 2.6 99 5.74 2.5 13 24 1013.1 0.6 13.9 24.3 33.3 86.9 72.2 245.2
08/05 23:50 2.7 99 5.77 2.6 13 22 1013.1 0.6 14.0 24.4 33.3 87.1 72.5 246.3
08/05 23:40 2.7 99 5.77 2.6 15 22 1013.1 0.6 14.0 24.4 33.3 87.1 72.5 246.3
08/05 23:30 2.7 99 5.77 2.6 17 28 1013.1 0.6 14.0 24.4 33.3 87.1 72.5 246.3
08/05 23:20 2.7 99 5.77 2.6 22 28 1013.1 0.6 14.0 24.4 33.3 87.1 72.5 246.3
08/05 23:10 2.8 99 5.81 2.7 22 32 1013.1 0.6 14.1 24.4 33.5 87.4 73.0 247.9
08/05 23:00 2.7 99 5.77 2.6 19 33 1013.1 0.6 14.0 24.4 33.3 87.1 72.5 246.3
08/05 22:50 2.7 99 5.77 2.6 17 26 1013.1 0.6 14.0 24.4 33.3 87.1 72.5 246.3
08/05 22:40 2.8 99 5.81 2.7 17 24 1013.1 0.6 14.1 24.4 33.5 87.4 73.0 247.9
08/05 22:30 2.7 99 5.77 2.6 19 28 1013.1 0.6 14.0 24.4 33.3 87.1 72.5 246.3
08/05 22:20 2.8 99 5.81 2.7 20 30 1013.1 0.6 14.1 24.4 33.5 87.4 73.0 247.9
08/05 22:10 2.8 99 5.81 2.7 19 24 1013.1 0.6 14.1 24.4 33.5 87.4 73.0 247.9
08/05 22:00 2.8 99 5.81 2.7 13 28 1013.1 0.6 14.1 24.4 33.5 87.4 73.0 247.9
08/05 21:50 2.8 99 5.81 2.7 15 24 1013.1 0.6 14.1 24.4 33.5 87.4 73.0 247.9
08/05 21:40 2.8 99 5.81 2.7 9 17 1013.1 0.6 14.1 24.4 33.5 87.4 73.0 247.9
08/05 21:30 2.7 99 5.77 2.6 13 30 1013.1 0.6 14.0 24.4 33.3 87.1 72.5 246.3
08/05 21:20 2.7 99 5.77 2.6 13 20 1013.1 0.6 14.0 24.4 33.3 87.1 72.5 246.3
08/05 21:10 2.7 99 5.77 2.6 19 24 1013.1 0.6 14.0 24.4 33.3 87.1 72.5 246.3
08/05 21:00 2.7 99 5.77 2.6 15 30 1013.1 0.6 14.0 24.4 33.3 87.1 72.5 246.3
08/05 20:50 2.7 99 5.77 2.6 17 24 1013.1 0.6 14.0 24.4 33.3 87.1 72.5 246.3
08/05 20:40 2.6 99 5.74 2.5 19 30 1013.1 0.6 13.9 24.3 33.3 86.9 72.2 245.2
08/05 20:30 2.6 99 5.74 2.5 17 30 1013.1 0.6 13.9 24.3 33.3 86.9 72.2 245.2
08/05 20:20 2.5 99 5.7 2.4 15 24 1013.1 0.6 13.8 24.3 33.1 86.5 71.8 243.6
08/05 20:10 2.5 99 5.7 2.4 13 26 1013.1 0.6 13.8 24.3 33.1 86.5 71.8 243.6
08/05 20:00 2.4 99 5.66 2.3 13 35 1013.1 0.6 13.7 24.3 33.0 86.2 71.3 242.0
08/05 19:50 2.4 99 5.66 2.3 15 24 1013.1 0.6 13.7 24.3 33.0 86.2 71.3 242.0
08/05 19:40 2.4 99 5.66 2.3 17 26 1013.1 0.6 13.7 24.3 33.0 86.2 71.3 242.0
08/05 19:30 2.3 99 5.62 2.2 17 35 1013.1 0.6 13.7 24.2 32.9 85.9 70.8 240.3
08/05 19:20 2.3 99 5.62 2.2 19 32 1013.1 0.6 13.7 24.2 32.9 85.9 70.8 240.3
08/05 19:10 2.2 99 5.58 2.1 20 28 1013.1 0.6 13.6 24.2 32.8 85.5 70.4 238.7
08/05 19:00 2.1 99 5.54 2 20 37 1013.1 0.6 13.5 24.1 32.6 85.2 69.9 237.1
08/05 18:50 2.1 99 5.54 2 24 43 1013.1 0.6 13.5 24.1 32.6 85.2 69.9 237.1
08/05 18:40 2 99 5.51 1.9 19 30 1013.1 0.6 13.4 24.1 32.5 85.0 69.6 236.0
08/05 18:30 2 99 5.51 1.9 26 43 1013.1 0.6 13.4 24.1 32.5 85.0 69.6 236.0
08/05 18:20 1.9 99 5.47 1.8 1013.1 0.6 13.4 24.1 32.4 84.6 69.1 234.3
08/05 18:10 1.9 99 5.47 1.8 1013.1 0.6 13.4 24.1 32.4 84.6 69.1 234.3
08/05 18:00 1.8 99 5.43 1.7 1013.1 0.6 13.3 24.0 32.3 84.3 68.7 232.7
08/05 17:50 1.8 99 5.43 1.7 1013.1 0.6 13.3 24.0 32.3 84.3 68.7 232.7
08/05 17:40 1.8 99 5.43 1.7 1013.1 0.6 13.3 24.0 32.3 84.3 68.7 232.7
08/05 17:30 1.8 99 5.43 1.7 1013.1 0.6 13.3 24.0 32.3 84.3 68.7 232.7
08/05 17:20 1.8 99 5.43 1.7 17 28 1013.1 0.6 13.3 24.0 32.3 84.3 68.7 232.7
08/05 17:10 1.8 99 5.43 1.7 15 20 1013.1 0.6 13.3 24.0 32.3 84.3 68.7 232.7
08/05 17:00 1.8 99 5.43 1.7 15 35 1013.1 0.6 13.3 24.0 32.3 84.3 68.7 232.7
08/05 16:50 1.8 99 5.43 1.7 15 20 1013.1 0.6 13.3 24.0 32.3 84.3 68.7 232.7
08/05 16:40 1.9 99 5.47 1.8 13 26 1013.1 0.6 13.4 24.1 32.4 84.6 69.1 234.3
08/05 16:30 1.8 99 5.43 1.7 20 37 1013.1 0.6 13.3 24.0 32.3 84.3 68.7 232.7
08/05 16:20 1.8 99 5.43 1.7 33 52 1013.1 0.6 13.3 24.0 32.3 84.3 68.7 232.7
08/05 16:10 1.8 99 5.43 1.7 24 37 1013.1 0.6 13.3 24.0 32.3 84.3 68.7 232.7
08/05 16:00 1.8 99 5.43 1.7 19 35 1013.1 0.6 13.3 24.0 32.3 84.3 68.7 232.7
08/05 15:50 1.8 99 5.43 1.7 19 28 1013.1 0.6 13.3 24.0 32.3 84.3 68.7 232.7
08/05 15:40 2 99 5.51 1.9 19 30 1013.1 0.6 13.4 24.1 32.5 85.0 69.6 236.0
08/05 15:30 1.8 99 5.43 1.7 22 44 1013.1 0.6 13.3 24.0 32.3 84.3 68.7 232.7
08/05 15:20 1.9 99 5.47 1.8 26 33 1013.1 0.6 13.4 24.1 32.4 84.6 69.1 234.3
08/05 15:10 2 99 5.51 1.9 17 24 1013.1 0.6 13.4 24.1 32.5 85.0 69.6 236.0
08/05 15:00 1.9 99 5.47 1.8 20 46 1013.1 0.6 13.4 24.1 32.4 84.6 69.1 234.3
08/05 14:50 1.9 99 5.47 1.8 22 37 1013.1 0.6 13.4 24.1 32.4 84.6 69.1 234.3
08/05 14:40 1.8 99 5.43 1.7 20 33 1013.1 0.6 13.3 24.0 32.3 84.3 68.7 232.7
08/05 14:30 1.8 99 5.43 1.7 22 39 1013.1 0.6 13.3 24.0 32.3 84.3 68.7 232.7
08/05 14:20 1.8 99 5.43 1.7 24 33 1013.1 0.6 13.3 24.0 32.3 84.3 68.7 232.7
08/05 14:10 1.8 99 5.43 1.7 20 33 1013.1 0.6 13.3 24.0 32.3 84.3 68.7 232.7
08/05 14:00 2.1 99 5.54 2 26 54 1013.1 0.6 13.5 24.1 32.6 85.2 69.9 237.1
08/05 13:50 2.4 99 5.66 2.3 20 37 1013.1 0.6 13.7 24.3 33.0 86.2 71.3 242.0
08/05 13:40 2.2 99 5.58 2.1 20 32 1013.1 0.6 13.6 24.2 32.8 85.5 70.4 238.7
08/05 13:30 2.2 99 5.58 2.1 22 44 1013.1 0.6 13.6 24.2 32.8 85.5 70.4 238.7
08/05 13:20 2.6 99 5.74 2.5 19 30 1013.1 0.6 13.9 24.3 33.3 86.9 72.2 245.2
08/05 13:10 2.4 99 5.66 2.3 19 24 1013.1 0.6 13.7 24.3 33.0 86.2 71.3 242.0
08/05 13:00 2.2 99 5.58 2.1 20 39 1013.1 0.6 13.6 24.2 32.8 85.5 70.4 238.7
08/05 12:50 2.3 99 5.62 2.2 17 24 1013.1 0.6 13.7 24.2 32.9 85.9 70.8 240.3
08/05 12:40 2.1 99 5.54 2 19 30 1013.1 0.6 13.5 24.1 32.6 85.2 69.9 237.1
08/05 12:30 2.1 99 5.54 2 17 33 1013.1 0.6 13.5 24.1 32.6 85.2 69.9 237.1
08/05 12:20 2 99 5.51 1.9 17 30 1013.1 0.6 13.4 24.1 32.5 85.0 69.6 236.0
08/05 12:10 1.9 99 5.47 1.8 26 43 1013.1 0.6 13.4 24.1 32.4 84.6 69.1 234.3
08/05 12:00 1.8 99 5.43 1.7 20 50 1013.1 0.6 13.3 24.0 32.3 84.3 68.7 232.7
08/05 11:50 1.9 99 5.47 1.8 19 26 1013.1 0.6 13.4 24.1 32.4 84.6 69.1 234.3

Last Refresh: 09-May-2026 03:52:28

Bureau of Meteorology